createdAt,value
2019-06-23T00:01:36.211Z,2.37
2019-06-23T00:04:02.203Z,2.60
2019-06-23T00:06:28.065Z,2.30
2019-06-23T00:08:54.013Z,2.07
2019-06-23T00:11:19.917Z,2.40
2019-06-23T00:13:45.806Z,2.47
2019-06-23T00:16:11.816Z,2.50
2019-06-23T00:18:37.689Z,2.07
2019-06-23T00:21:03.663Z,2.50
2019-06-23T00:23:29.515Z,2.30
2019-06-23T00:25:55.411Z,2.70
2019-06-23T00:28:21.282Z,2.40
2019-06-23T00:30:49.092Z,2.70
2019-06-23T00:33:14.924Z,2.53
2019-06-23T00:35:40.834Z,2.80
2019-06-23T00:38:06.919Z,2.97
2019-06-23T00:40:32.852Z,3.20
2019-06-23T00:42:58.721Z,3.13
2019-06-23T00:45:24.628Z,3.10
2019-06-23T00:47:50.516Z,2.63
2019-06-23T00:50:16.584Z,3.00
2019-06-23T00:52:42.441Z,2.90
2019-06-23T00:55:08.988Z,3.10
2019-06-23T00:57:34.879Z,3.10
2019-06-23T01:00:00.869Z,3.00
2019-06-23T01:02:28.638Z,2.60
2019-06-23T01:04:54.516Z,3.10
2019-06-23T01:07:20.430Z,3.00
2019-06-23T01:10:01.501Z,2.70
2019-06-23T01:12:14.142Z,2.80
2019-06-23T01:14:40.032Z,2.97
2019-06-23T01:17:05.919Z,2.90
2019-06-23T01:19:31.779Z,3.13
2019-06-23T01:21:57.664Z,3.23
2019-06-23T01:24:23.521Z,3.00
2019-06-23T01:26:49.527Z,2.90
2019-06-23T01:29:15.373Z,2.90
2019-06-23T01:31:41.262Z,3.60
2019-06-23T01:34:07.131Z,2.93
2019-06-23T01:36:33.117Z,2.87
2019-06-23T01:38:59.007Z,2.93
2019-06-23T01:41:24.876Z,2.53
2019-06-23T01:43:50.741Z,2.63
2019-06-23T01:46:16.635Z,2.73
2019-06-23T01:48:42.497Z,2.77
2019-06-23T01:51:08.381Z,2.93
2019-06-23T01:53:34.243Z,2.60
2019-06-23T01:56:00.136Z,2.50
2019-06-23T01:58:26.003Z,2.40
2019-06-23T02:00:51.899Z,2.70
2019-06-23T02:03:17.740Z,3.33
2019-06-23T02:05:43.623Z,3.13
2019-06-23T02:08:09.483Z,3.30
2019-06-23T02:10:35.367Z,3.40
2019-06-23T02:13:01.225Z,3.67
2019-06-23T02:15:27.113Z,2.80
2019-06-23T02:17:52.997Z,3.57
2019-06-23T02:20:20.861Z,2.83
2019-06-23T02:22:48.660Z,2.97
2019-06-23T02:25:14.533Z,2.80
2019-06-23T02:27:40.425Z,2.90
2019-06-23T02:30:06.392Z,2.87
2019-06-23T02:32:32.279Z,3.03
2019-06-23T02:35:04.366Z,2.47
2019-06-23T02:37:25.965Z,2.83
2019-06-23T02:39:51.833Z,2.63
2019-06-23T02:42:17.721Z,2.43
2019-06-23T02:44:43.590Z,2.80
2019-06-23T02:47:14.171Z,2.77
2019-06-23T02:49:44.769Z,2.57
2019-06-23T02:52:15.547Z,2.80
2019-06-23T02:54:49.144Z,3.70
2019-06-23T02:57:33.737Z,3.20
2019-06-23T02:59:59.660Z,3.33
2019-06-23T03:02:25.551Z,3.43
2019-06-23T03:04:51.420Z,3.30
2019-06-23T03:07:17.300Z,3.37
2019-06-23T03:09:43.155Z,3.20
2019-06-23T03:12:09.042Z,3.30
2019-06-23T03:14:34.929Z,3.17
2019-06-23T03:17:00.813Z,3.10
2019-06-23T03:19:26.677Z,2.97
2019-06-23T03:21:52.568Z,3.20
2019-06-23T03:24:18.496Z,3.03
2019-06-23T03:26:44.408Z,3.20
2019-06-23T03:29:10.311Z,3.20
2019-06-23T03:31:36.569Z,2.80
2019-06-23T03:34:02.475Z,3.13
2019-06-23T03:36:29.321Z,2.83
2019-06-23T03:38:55.209Z,2.90
2019-06-23T03:41:22.169Z,2.73
2019-06-23T03:43:48.954Z,3.17
2019-06-23T03:46:14.818Z,2.97
2019-06-23T03:48:40.716Z,2.90
2019-06-23T03:51:06.567Z,3.10
2019-06-23T03:53:32.449Z,3.17
2019-06-23T03:55:58.316Z,2.80
2019-06-23T03:58:24.204Z,3.10
2019-06-23T04:00:50.065Z,3.07
2019-06-23T04:03:15.952Z,3.40
2019-06-23T04:05:51.120Z,2.97
2019-06-23T04:08:09.615Z,2.53
2019-06-23T04:10:35.476Z,2.80
2019-06-23T04:13:01.366Z,2.73
2019-06-23T04:15:27.251Z,2.60
2019-06-23T04:17:53.144Z,2.87
2019-06-23T04:20:22.830Z,2.43
2019-06-23T04:22:48.890Z,2.87
2019-06-23T04:25:14.783Z,2.70
2019-06-23T04:27:40.740Z,2.73
2019-06-23T04:30:06.828Z,2.87
2019-06-23T04:32:32.691Z,2.53
2019-06-23T04:34:58.585Z,2.50
2019-06-23T04:37:24.541Z,2.50
2019-06-23T04:39:50.428Z,2.80
2019-06-23T04:42:16.289Z,2.50
2019-06-23T04:44:42.182Z,2.33
2019-06-23T04:47:08.065Z,2.57
2019-06-23T04:49:33.932Z,2.53
2019-06-23T04:51:59.801Z,2.47
2019-06-23T04:54:25.685Z,2.30
2019-06-23T04:56:51.549Z,2.63
2019-06-23T04:59:17.439Z,2.30
2019-06-23T05:01:43.298Z,2.07
2019-06-23T05:04:09.188Z,2.43
2019-06-23T05:06:35.049Z,2.63
2019-06-23T05:09:00.938Z,2.73
2019-06-23T05:11:26.799Z,2.43
2019-06-23T05:13:52.755Z,2.33
2019-06-23T05:16:18.685Z,2.60
2019-06-23T05:18:44.581Z,2.37
2019-06-23T05:21:10.443Z,2.50
2019-06-23T05:23:36.297Z,2.43
2019-06-23T05:26:02.191Z,2.63
2019-06-23T05:28:28.044Z,2.40
2019-06-23T05:30:53.931Z,1.93
2019-06-23T05:33:19.836Z,2.00
2019-06-23T05:35:45.688Z,1.77
2019-06-23T05:38:11.551Z,1.73
2019-06-23T05:40:37.441Z,2.10
2019-06-23T05:43:03.368Z,2.40
2019-06-23T05:45:29.255Z,2.23
2019-06-23T05:47:55.097Z,1.80
2019-06-23T05:50:20.987Z,1.80
2019-06-23T05:52:46.843Z,1.83
2019-06-23T05:55:12.735Z,1.50
2019-06-23T05:57:38.600Z,1.50
2019-06-23T06:00:09.300Z,1.70
2019-06-23T06:02:35.149Z,1.57
2019-06-23T06:05:01.047Z,1.40
2019-06-23T06:07:26.914Z,1.70
2019-06-23T06:09:52.800Z,1.70
2019-06-23T06:12:18.677Z,1.50
2019-06-23T06:14:44.694Z,1.30
2019-06-23T06:17:10.605Z,1.40
2019-06-23T06:19:36.424Z,1.17
2019-06-23T06:22:02.698Z,1.53
2019-06-23T06:24:28.864Z,1.70
2019-06-23T06:26:54.855Z,1.50
2019-06-23T06:29:21.202Z,1.30
2019-06-23T06:31:47.095Z,1.30
2019-06-23T06:34:13.122Z,1.30
2019-06-23T06:36:39.015Z,1.50
2019-06-23T06:39:05.582Z,1.50
2019-06-23T06:41:31.885Z,1.40
2019-06-23T06:43:57.731Z,1.20
2019-06-23T06:46:23.744Z,1.53
2019-06-23T06:48:49.687Z,1.50
2019-06-23T06:51:15.570Z,1.40
2019-06-23T06:53:41.848Z,1.60
2019-06-23T06:56:07.724Z,1.17
2019-06-23T06:58:34.090Z,1.40
2019-06-23T07:01:00.024Z,1.30
2019-06-23T07:03:26.036Z,1.73
2019-06-23T07:05:51.927Z,1.20
2019-06-23T07:08:17.784Z,1.33
2019-06-23T07:10:44.313Z,1.20
2019-06-23T07:13:10.222Z,1.57
2019-06-23T07:15:36.111Z,1.27
2019-06-23T07:18:02.009Z,1.23
2019-06-23T07:20:27.852Z,1.37
2019-06-23T07:22:53.745Z,1.67
2019-06-23T07:25:19.605Z,1.63
2019-06-23T07:27:45.494Z,1.47
2019-06-23T07:30:32.785Z,1.60
2019-06-23T07:32:58.672Z,1.50
2019-06-23T07:35:24.534Z,1.20
2019-06-23T07:37:50.430Z,1.40
2019-06-23T07:40:16.288Z,1.40
2019-06-23T07:42:42.200Z,1.53
2019-06-23T07:45:08.144Z,1.23
2019-06-23T07:47:34.032Z,1.50
2019-06-23T07:49:59.893Z,1.40
2019-06-23T07:52:25.789Z,1.20
2019-06-23T07:54:51.662Z,1.50
2019-06-23T07:57:17.541Z,1.30
2019-06-23T07:59:43.402Z,1.30
2019-06-23T08:02:09.292Z,1.40
2019-06-23T08:04:35.152Z,1.20
2019-06-23T08:07:01.042Z,1.40
2019-06-23T08:09:26.903Z,1.50
2019-06-23T08:11:52.765Z,1.53
2019-06-23T08:14:18.681Z,1.20
2019-06-23T08:16:44.593Z,1.60
2019-06-23T08:19:10.473Z,1.50
2019-06-23T08:21:36.873Z,1.67
2019-06-23T08:24:03.435Z,1.40
2019-06-23T08:26:29.886Z,1.13
2019-06-23T08:28:55.776Z,1.53
2019-06-23T08:31:21.634Z,1.23
2019-06-23T08:33:47.521Z,1.63
2019-06-23T08:36:13.381Z,1.50
2019-06-23T08:38:39.281Z,1.37
2019-06-23T08:41:05.166Z,1.27
2019-06-23T08:43:31.057Z,1.37
2019-06-23T08:45:56.919Z,1.63
2019-06-23T08:48:22.865Z,1.30
2019-06-23T08:50:48.720Z,1.20
2019-06-23T08:53:14.621Z,1.40
2019-06-23T08:55:40.485Z,1.30
2019-06-23T08:58:06.413Z,1.20
2019-06-23T09:00:32.382Z,1.30
2019-06-23T09:02:58.272Z,1.63
2019-06-23T09:05:24.133Z,1.63
2019-06-23T09:07:49.991Z,1.27
2019-06-23T09:10:15.881Z,1.40
2019-06-23T09:12:41.746Z,1.33
2019-06-23T09:15:07.862Z,1.43
2019-06-23T09:17:33.745Z,1.20
2019-06-23T09:19:59.642Z,1.40
2019-06-23T09:22:25.493Z,1.20
2019-06-23T09:24:51.393Z,1.40
2019-06-23T09:27:17.315Z,1.30
2019-06-23T09:29:43.231Z,1.77
2019-06-23T09:32:09.058Z,1.20
2019-06-23T09:34:34.946Z,1.50
2019-06-23T09:37:00.824Z,1.50
2019-06-23T09:39:26.832Z,1.17
2019-06-23T09:41:52.702Z,1.57
2019-06-23T09:44:18.583Z,1.50
2019-06-23T09:46:44.448Z,1.50
2019-06-23T09:49:10.332Z,1.30
2019-06-23T09:51:36.223Z,1.67
2019-06-23T09:54:02.091Z,1.70
2019-06-23T09:56:27.957Z,1.30
2019-06-23T09:58:53.849Z,1.20
2019-06-23T10:01:19.720Z,1.60
2019-06-23T10:03:45.581Z,1.80
2019-06-23T10:06:11.589Z,1.30
2019-06-23T10:08:37.454Z,1.60
2019-06-23T10:11:03.347Z,1.43
2019-06-23T10:13:29.207Z,1.43
2019-06-23T10:15:55.116Z,1.40
2019-06-23T10:18:20.982Z,1.60
2019-06-23T10:20:46.885Z,1.67
2019-06-23T10:23:12.737Z,1.90
2019-06-23T10:25:38.635Z,1.90
2019-06-23T10:28:04.510Z,1.63
2019-06-23T10:30:30.424Z,1.63
2019-06-23T10:32:56.270Z,2.30
2019-06-23T10:35:22.199Z,1.60
2019-06-23T10:37:48.070Z,1.80
2019-06-23T10:40:14.262Z,1.60
2019-06-23T10:42:40.125Z,2.00
2019-06-23T10:45:07.713Z,1.63
2019-06-23T10:47:34.180Z,1.40
2019-06-23T10:50:00.731Z,1.80
2019-06-23T10:52:29.919Z,1.60
2019-06-23T10:54:54.988Z,1.53
2019-06-23T10:57:20.850Z,1.60
2019-06-23T10:59:47.399Z,1.50
2019-06-23T11:02:13.849Z,1.60
2019-06-23T11:04:40.162Z,1.50
2019-06-23T11:07:06.065Z,1.50
2019-06-23T11:09:35.877Z,1.50
2019-06-23T11:12:00.371Z,1.50
2019-06-23T11:14:28.841Z,1.73
2019-06-23T11:16:55.302Z,1.60
2019-06-23T11:19:22.249Z,1.43
2019-06-23T11:21:48.733Z,1.63
2019-06-23T11:24:15.343Z,1.50
2019-06-23T11:26:44.480Z,1.70
2019-06-23T11:29:10.999Z,1.90
2019-06-23T11:31:37.345Z,2.20
2019-06-23T11:34:04.296Z,1.60
2019-06-23T11:36:30.952Z,1.60
2019-06-23T11:38:57.513Z,1.70
2019-06-23T11:41:24.424Z,1.53
2019-06-23T11:43:50.946Z,1.70
2019-06-23T11:46:17.327Z,1.77
2019-06-23T11:48:44.023Z,1.77
2019-06-23T11:51:11.055Z,1.83
2019-06-23T11:53:37.627Z,1.70
2019-06-23T11:56:05.965Z,1.90
2019-06-23T11:58:32.413Z,1.97
2019-06-23T12:00:58.952Z,1.60
2019-06-23T12:03:25.431Z,1.50
2019-06-23T12:05:52.226Z,1.63
2019-06-23T12:08:18.891Z,1.70
2019-06-23T12:10:45.451Z,1.87
2019-06-23T12:13:12.260Z,1.60
2019-06-23T12:15:38.955Z,1.50
2019-06-23T12:18:05.693Z,1.50
2019-06-23T12:20:31.895Z,1.70
2019-06-23T12:22:57.991Z,1.60
2019-06-23T12:25:24.638Z,1.73
2019-06-23T12:27:50.620Z,1.80
2019-06-23T12:30:16.483Z,1.60
2019-06-23T12:32:42.461Z,1.60
2019-06-23T12:35:08.421Z,1.87
2019-06-23T12:37:34.351Z,1.60
2019-06-23T12:40:00.190Z,2.10
2019-06-23T12:42:26.078Z,1.83
2019-06-23T12:44:51.938Z,1.63
2019-06-23T12:47:17.842Z,1.80
2019-06-23T12:49:43.691Z,2.23
2019-06-23T12:52:09.680Z,1.53
2019-06-23T12:54:35.542Z,1.70
2019-06-23T12:57:01.428Z,1.27
2019-06-23T12:59:27.291Z,1.47
2019-06-23T13:01:53.285Z,1.50
2019-06-23T13:04:19.144Z,1.67
2019-06-23T13:06:45.004Z,1.60
2019-06-23T13:09:10.889Z,1.70
2019-06-23T13:11:36.756Z,1.80
2019-06-23T13:14:03.369Z,1.50
2019-06-23T13:16:29.334Z,1.50
2019-06-23T13:18:55.241Z,1.90
2019-06-23T13:21:21.448Z,1.67
2019-06-23T13:23:47.370Z,1.90
2019-06-23T13:26:13.220Z,1.80
2019-06-23T13:28:39.628Z,1.80
2019-06-23T13:31:05.611Z,2.00
2019-06-23T13:33:31.496Z,2.00
2019-06-23T13:35:57.405Z,1.50
2019-06-23T13:38:23.267Z,1.87
2019-06-23T13:40:56.248Z,1.50
2019-06-23T13:43:16.933Z,1.60
2019-06-23T13:45:42.791Z,1.70
2019-06-23T13:48:08.677Z,1.80
2019-06-23T13:50:34.670Z,1.80
2019-06-23T13:53:00.557Z,1.60
2019-06-23T13:55:26.416Z,2.00
2019-06-23T13:57:52.314Z,1.70
2019-06-23T14:00:18.681Z,1.57
2019-06-23T14:02:44.543Z,1.73
2019-06-23T14:05:10.639Z,1.70
2019-06-23T14:07:36.501Z,1.70
2019-06-23T14:10:04.688Z,1.70
2019-06-23T14:12:30.551Z,1.80
2019-06-23T14:14:56.478Z,1.67
2019-06-23T14:17:22.355Z,1.80
2019-06-23T14:19:50.366Z,2.67
2019-06-23T14:22:16.497Z,2.00
2019-06-23T14:24:42.384Z,1.80
2019-06-23T14:27:08.442Z,1.60
2019-06-23T14:29:34.328Z,1.90
2019-06-23T14:32:00.188Z,1.70
2019-06-23T14:34:26.090Z,1.90
2019-06-23T14:36:51.936Z,2.00
2019-06-23T14:39:17.820Z,1.80
2019-06-23T14:41:43.689Z,1.70
2019-06-23T14:44:09.611Z,1.80
2019-06-23T14:46:35.463Z,2.10
2019-06-23T14:49:01.333Z,1.80
2019-06-23T14:51:27.229Z,1.70
2019-06-23T14:53:53.092Z,1.93
2019-06-23T14:56:18.982Z,1.87
2019-06-23T14:58:44.840Z,1.80
2019-06-23T15:01:13.475Z,1.93
2019-06-23T15:03:38.485Z,2.03
2019-06-23T15:06:04.381Z,1.70
2019-06-23T15:08:30.258Z,1.60
2019-06-23T15:10:56.125Z,1.83
2019-06-23T15:13:21.985Z,2.10
2019-06-23T15:15:47.902Z,2.10
2019-06-23T15:18:13.772Z,2.10
2019-06-23T15:20:43.456Z,2.00
2019-06-23T15:23:07.426Z,1.70
2019-06-23T15:25:33.308Z,1.73
2019-06-23T15:27:59.179Z,1.90
2019-06-23T15:30:25.065Z,1.70
2019-06-23T15:32:51.180Z,2.00
2019-06-23T15:35:17.514Z,1.83
2019-06-23T15:37:43.506Z,1.93
2019-06-23T15:40:09.793Z,2.57
2019-06-23T15:42:36.196Z,2.00
2019-06-23T15:45:05.654Z,2.03
2019-06-23T15:47:31.542Z,1.97
2019-06-23T15:49:57.401Z,1.80
2019-06-23T15:52:23.284Z,2.17
2019-06-23T15:54:49.159Z,1.80
2019-06-23T15:57:15.039Z,1.80
2019-06-23T15:59:40.909Z,2.03
2019-06-23T16:02:06.801Z,1.70
2019-06-23T16:04:32.659Z,1.63
2019-06-23T16:06:58.556Z,1.90
2019-06-23T16:09:24.424Z,1.90
2019-06-23T16:11:50.346Z,2.27
2019-06-23T16:14:16.338Z,1.73
2019-06-23T16:16:42.224Z,2.40
2019-06-23T16:19:08.089Z,2.23
2019-06-23T16:21:33.982Z,1.90
2019-06-23T16:23:59.835Z,2.03
2019-06-23T16:26:25.729Z,2.50
2019-06-23T16:28:51.586Z,2.10
2019-06-23T16:31:17.476Z,1.80
2019-06-23T16:33:43.344Z,1.80
2019-06-23T16:36:09.348Z,1.97
2019-06-23T16:38:35.219Z,1.93
2019-06-23T16:41:01.084Z,1.80
2019-06-23T16:43:27.889Z,1.87
2019-06-23T16:45:53.824Z,1.97
2019-06-23T16:48:19.711Z,1.90
2019-06-23T16:50:45.585Z,1.80
2019-06-23T16:53:11.474Z,2.07
2019-06-23T16:55:37.336Z,1.83
2019-06-23T16:58:03.371Z,1.80
2019-06-23T17:00:29.227Z,1.83
2019-06-23T17:02:55.120Z,1.90
2019-06-23T17:05:20.991Z,1.67
2019-06-23T17:07:46.878Z,1.90
2019-06-23T17:10:13.038Z,2.30
2019-06-23T17:12:49.049Z,2.00
2019-06-23T17:15:07.119Z,2.00
2019-06-23T17:17:33.105Z,1.70
2019-06-23T17:19:58.968Z,1.90
2019-06-23T17:22:25.309Z,2.13
2019-06-23T17:24:51.299Z,1.70
2019-06-23T17:27:17.459Z,1.73
2019-06-23T17:29:43.741Z,1.80
2019-06-23T17:32:09.813Z,1.73
2019-06-23T17:34:36.143Z,1.70
2019-06-23T17:37:02.158Z,1.70
2019-06-23T17:39:28.272Z,1.90
2019-06-23T17:41:54.440Z,1.90
2019-06-23T17:44:20.673Z,2.10
2019-06-23T17:46:46.811Z,1.90
2019-06-23T17:49:13.069Z,2.03
2019-06-23T17:51:39.228Z,1.80
2019-06-23T17:54:05.680Z,1.80
2019-06-23T17:56:31.554Z,1.73
2019-06-23T17:58:57.843Z,2.00
2019-06-23T18:01:23.692Z,1.87
2019-06-23T18:03:49.569Z,2.00
2019-06-23T18:06:15.447Z,1.70
2019-06-23T18:08:41.331Z,1.70
2019-06-23T18:11:07.195Z,1.70
2019-06-23T18:13:33.089Z,1.90
2019-06-23T18:15:58.969Z,1.67
2019-06-23T18:18:25.000Z,1.80
2019-06-23T18:20:54.289Z,2.00
2019-06-23T18:23:20.806Z,2.00
2019-06-23T18:25:46.740Z,1.80
2019-06-23T18:28:12.900Z,1.90
2019-06-23T18:30:39.315Z,2.00
2019-06-23T18:33:05.509Z,1.67
2019-06-23T18:35:31.365Z,1.90
2019-06-23T18:37:57.229Z,1.60
2019-06-23T18:40:23.175Z,1.70
2019-06-23T18:42:52.430Z,1.80
2019-06-23T18:45:19.165Z,1.77
2019-06-23T18:47:45.229Z,1.80
2019-06-23T18:50:11.871Z,1.73
2019-06-23T18:52:37.733Z,1.80
2019-06-23T18:55:05.553Z,1.67
2019-06-23T18:57:31.462Z,2.07
2019-06-23T18:59:57.507Z,1.60
2019-06-23T19:02:25.724Z,1.60
2019-06-23T19:04:51.984Z,2.03
2019-06-23T19:07:17.869Z,1.77
2019-06-23T19:09:44.140Z,1.80
2019-06-23T19:12:10.427Z,1.97
2019-06-23T19:14:36.677Z,2.00
2019-06-23T19:17:04.816Z,1.90
2019-06-23T19:19:30.710Z,2.20
2019-06-23T19:21:56.557Z,2.20
2019-06-23T19:24:22.440Z,2.30
2019-06-23T19:26:48.812Z,1.80
2019-06-23T19:29:14.855Z,1.93
2019-06-23T19:31:40.723Z,1.93
2019-06-23T19:34:06.637Z,2.13
2019-06-23T19:36:32.500Z,1.73
2019-06-23T19:38:58.358Z,1.97
2019-06-23T19:41:24.244Z,2.07
2019-06-23T19:43:50.101Z,1.90
2019-06-23T19:46:15.985Z,2.03
2019-06-23T19:48:41.910Z,2.10
2019-06-23T19:51:07.833Z,2.20
2019-06-23T19:53:33.726Z,2.30
2019-06-23T19:55:59.607Z,1.87
2019-06-23T19:58:25.523Z,2.17
2019-06-23T20:00:51.446Z,2.30
2019-06-23T20:03:17.311Z,1.97
2019-06-23T20:05:43.305Z,2.20
2019-06-23T20:08:09.209Z,2.10
2019-06-23T20:10:35.096Z,2.30
2019-06-23T20:13:00.949Z,1.80
2019-06-23T20:15:28.315Z,2.10
2019-06-23T20:17:54.481Z,2.20
2019-06-23T20:20:20.462Z,2.07
2019-06-23T20:22:46.322Z,2.13
2019-06-23T20:25:12.191Z,2.13
2019-06-23T20:27:38.078Z,1.83
2019-06-23T20:30:07.543Z,2.23
2019-06-23T20:32:33.500Z,2.23
2019-06-23T20:34:59.352Z,2.10
2019-06-23T20:37:25.266Z,1.87
2019-06-23T20:39:51.194Z,1.90
2019-06-23T20:42:17.146Z,2.00
2019-06-23T20:44:43.153Z,2.03
2019-06-23T20:47:09.050Z,2.20
2019-06-23T20:49:34.905Z,2.20
2019-06-23T20:52:00.789Z,2.17
2019-06-23T20:54:26.646Z,1.93
2019-06-23T20:56:52.532Z,1.90
2019-06-23T20:59:18.398Z,2.10
2019-06-23T21:01:44.341Z,1.90
2019-06-23T21:04:10.252Z,2.10
2019-06-23T21:06:36.112Z,2.00
2019-06-23T21:09:03.595Z,2.13
2019-06-23T21:11:29.462Z,2.13
2019-06-23T21:13:55.351Z,2.30
2019-06-23T21:16:21.242Z,2.60
2019-06-23T21:18:47.133Z,2.50
2019-06-23T21:21:13.002Z,2.17
2019-06-23T21:23:38.890Z,2.00
2019-06-23T21:26:04.749Z,2.23
2019-06-23T21:28:30.642Z,2.00
2019-06-23T21:30:56.505Z,2.50
2019-06-23T21:33:22.401Z,2.50
2019-06-23T21:35:48.273Z,2.10
2019-06-23T21:38:14.161Z,2.20
2019-06-23T21:40:40.025Z,2.30
2019-06-23T21:43:05.917Z,2.20
2019-06-23T21:45:31.809Z,2.20
2019-06-23T21:47:57.690Z,2.40
2019-06-23T21:50:23.670Z,2.23
2019-06-23T21:52:49.559Z,2.70
2019-06-23T21:55:15.446Z,1.90
2019-06-23T21:57:41.414Z,2.53
2019-06-23T22:00:28.933Z,2.20
2019-06-23T22:02:54.970Z,2.67
2019-06-23T22:05:23.660Z,2.60
2019-06-23T22:07:49.531Z,2.63
2019-06-23T22:10:15.423Z,2.47
2019-06-23T22:12:41.290Z,2.47
2019-06-23T22:15:07.299Z,2.40
2019-06-23T22:17:33.178Z,2.70
2019-06-23T22:19:59.044Z,2.30
2019-06-23T22:22:24.914Z,2.40
2019-06-23T22:24:50.813Z,2.20
2019-06-23T22:27:16.668Z,2.53
2019-06-23T22:29:42.556Z,2.53
2019-06-23T22:32:08.423Z,2.30
2019-06-23T22:34:34.440Z,2.50
2019-06-23T22:37:00.284Z,2.83
2019-06-23T22:39:26.169Z,2.60
2019-06-23T22:41:52.032Z,2.40
2019-06-23T22:44:17.898Z,2.70
2019-06-23T22:46:43.780Z,2.53
2019-06-23T22:49:09.638Z,2.57
2019-06-23T22:51:35.525Z,2.73
2019-06-23T22:54:01.416Z,2.70
2019-06-23T22:56:27.280Z,2.50
2019-06-23T22:58:53.141Z,2.30
2019-06-23T23:01:19.022Z,2.40
2019-06-23T23:03:44.884Z,2.40
2019-06-23T23:06:10.763Z,2.43
2019-06-23T23:08:36.617Z,2.60
2019-06-23T23:11:02.719Z,2.40
2019-06-23T23:13:28.551Z,2.20
2019-06-23T23:16:03.538Z,2.20
2019-06-23T23:18:22.226Z,2.70
2019-06-23T23:20:48.165Z,2.57
2019-06-23T23:23:14.017Z,2.47
2019-06-23T23:25:39.902Z,2.80
2019-06-23T23:28:05.951Z,2.37
2019-06-23T23:30:31.838Z,2.60
2019-06-23T23:32:57.693Z,2.60
2019-06-23T23:35:23.676Z,2.60
2019-06-23T23:37:49.540Z,2.63
2019-06-23T23:40:15.398Z,3.10
2019-06-23T23:42:41.320Z,3.17
2019-06-23T23:45:07.772Z,2.80
2019-06-23T23:47:33.680Z,2.80
2019-06-23T23:49:59.534Z,2.73
2019-06-23T23:52:25.412Z,3.10
2019-06-23T23:54:51.282Z,2.40
2019-06-23T23:57:17.160Z,2.30
2019-06-23T23:59:43.070Z,2.50
